메인 페이지
METAR-TAF:

METAR-TAF

공항 :

Southern Wisconsin Regional Airport

Janesville, 위스콘신, 미국

위도: 42-37N, 경도: 089-02W, 고도: 246m

현재 날씨관측

예보는 37분 전, 21:45시(UTC)에 발표되었습니다.
15kt
온도 2°C
습도 80%
기압 1023 hPa
시정: 16.1km
고도 1400ft 상공 구름 많음
고도 2400ft 상공 흐림

METAR: KJVL 252145Z 01015KT 10SM BKN014 OVC024 02/M01 A3022

시각: 17:22 (22:22 UTC)

예보

예보는 1 시간 19분 전, 21:03시(UTC)에 발표되었습니다.
예보 대상 시간: 25일 21시부터 26일 18시까지 (UTC)
8kt
시정: 10km
고도 2500ft 상공 구름 많음
25일 2300시부터 (UTC)
7kt
시정: 10km
고도 2500ft 상공 구름 많음
시계 내 소나기
26일 0600시부터 (UTC)
6kt
시정: 10km
고도 1200ft 상공 흐림
시계 내 소나기
26일 1200시부터 (UTC)
7kt
시정: 10km
고도 1800ft 상공 구름 많음
26일 1600시부터 (UTC)
9kt
시정: 10km
고도 3500ft 상공 구름 보통

TAF: KJVL 252103Z 2521/2618 36008KT P6SM BKN025 FM252300 36007KT P6SM VCSH BKN025 FM260600 36006KT P6SM VCSH OVC012 FM261200 35007KT P6SM BKN018 FM261600 35009KT P6SM SCT035

4,000개 이상의 공항 관측 자료 및 예보 (METAR 및 TAF 보고).

지도상에서 검색 가능한 기상관측소가 노란 점과 빨간 점으로 표시되어 있습니다.

기상관측소 명을 보려면 표시 위로 마우스를 이동하세요.

날씨 관측과 예보를 보려면 클릭하세요.

지도 변경 : 확대하려면 엑스 표시가 있는 녹색 버튼, 축소하려면 빼기 표시가 있는 녹색 버튼, 다음 페이지의 지도를 보려면 녹색 화살표를 클릭하세요.


METAR-TAF: